Auburn, Nebraska
Current Conditions -  °F | °C
As of 11:55 AM on Friday 24 Oct 2014 (Local Time) from KAFK Reporting Station
Broken Clouds Broken Clouds  
Wind Chill: 66°   Ceiling: 900
Heat Index: 66°   Visibility: 10mi
Dew Point: 63°   Wind: 9mph
Humidity: 92%   Direction: 200°SSW
Pressure: 29.96"   Gusts: NA
Location:  40.39°N, 95.84°W
Report Text: KAFK 241655Z AUTO 20008KT 10SM BKN009 19/17 A2996 RMK AO2 T01880174
Loading
Personal Weather Stations






























Interactive Weather Map
Tropical Storm Tracking
New forecast layout! Learn more

10-Day Weather Forecast

Advertisements
Track Severe Weather on mobile